sensor_id;sensor_type;location;lat;lon;timestamp;P1;durP1;ratioP1;P2;durP2;ratioP2
15287;SDS011;7745;48.708;9.026;2022-12-10T00:01:13;57.47;;;33.67;;
15287;SDS011;7745;48.708;9.026;2022-12-10T00:11:14;54.33;;;33.47;;
15287;SDS011;7745;48.708;9.026;2022-12-10T00:14:01;53.50;;;33.00;;
15287;SDS011;7745;48.708;9.026;2022-12-10T00:16:32;52.73;;;32.63;;
15287;SDS011;7745;48.708;9.026;2022-12-10T00:19:16;52.33;;;33.60;;
15287;SDS011;7745;48.708;9.026;2022-12-10T00:21:59;49.83;;;31.80;;
15287;SDS011;7745;48.708;9.026;2022-12-10T00:24:45;57.80;;;34.53;;
15287;SDS011;7745;48.708;9.026;2022-12-10T00:27:20;56.27;;;33.20;;
15287;SDS011;7745;48.708;9.026;2022-12-10T00:30:12;52.20;;;31.93;;
15287;SDS011;7745;48.708;9.026;2022-12-10T00:32:44;51.20;;;32.40;;
15287;SDS011;7745;48.708;9.026;2022-12-10T00:35:28;52.17;;;32.50;;
15287;SDS011;7745;48.708;9.026;2022-12-10T00:38:35;50.10;;;32.00;;
15287;SDS011;7745;48.708;9.026;2022-12-10T00:41:14;56.67;;;33.70;;
15287;SDS011;7745;48.708;9.026;2022-12-10T00:43:52;55.77;;;32.93;;
15287;SDS011;7745;48.708;9.026;2022-12-10T00:46:31;57.23;;;32.63;;
15287;SDS011;7745;48.708;9.026;2022-12-10T00:49:02;51.07;;;33.10;;
15287;SDS011;7745;48.708;9.026;2022-12-10T00:54:27;53.90;;;32.43;;
15287;SDS011;7745;48.708;9.026;2022-12-10T00:56:58;54.60;;;33.93;;
15287;SDS011;7745;48.708;9.026;2022-12-10T00:59:31;52.17;;;32.37;;
15287;SDS011;7745;48.708;9.026;2022-12-10T01:02:04;51.50;;;32.13;;
15287;SDS011;7745;48.708;9.026;2022-12-10T01:04:46;55.77;;;33.17;;
15287;SDS011;7745;48.708;9.026;2022-12-10T01:07:26;53.20;;;32.27;;
15287;SDS011;7745;48.708;9.026;2022-12-10T01:38:16;47.83;;;29.27;;
15287;SDS011;7745;48.708;9.026;2022-12-10T02:36:18;50.93;;;30.80;;
15287;SDS011;7745;48.708;9.026;2022-12-10T02:55:38;50.07;;;32.40;;
15287;SDS011;7745;48.708;9.026;2022-12-10T03:05:17;45.87;;;30.37;;
15287;SDS011;7745;48.708;9.026;2022-12-10T06:41:34;47.40;;;29.83;;
15287;SDS011;7745;48.708;9.026;2022-12-10T06:48:36;50.50;;;31.80;;
15287;SDS011;7745;48.708;9.026;2022-12-10T06:54:53;48.93;;;30.97;;
15287;SDS011;7745;48.708;9.026;2022-12-10T06:57:46;47.43;;;30.30;;
15287;SDS011;7745;48.708;9.026;2022-12-10T07:03:59;44.67;;;29.03;;
15287;SDS011;7745;48.708;9.026;2022-12-10T07:06:52;47.47;;;29.30;;
15287;SDS011;7745;48.708;9.026;2022-12-10T07:09:41;47.07;;;31.13;;
15287;SDS011;7745;48.708;9.026;2022-12-10T07:15:26;44.67;;;30.83;;
15287;SDS011;7745;48.708;9.026;2022-12-10T07:18:19;49.43;;;29.97;;
15287;SDS011;7745;48.708;9.026;2022-12-10T07:21:30;44.33;;;29.40;;
15287;SDS011;7745;48.708;9.026;2022-12-10T07:24:20;44.43;;;30.30;;
15287;SDS011;7745;48.708;9.026;2022-12-10T07:26:50;51.17;;;31.77;;
15287;SDS011;7745;48.708;9.026;2022-12-10T07:29:28;50.07;;;30.97;;
15287;SDS011;7745;48.708;9.026;2022-12-10T07:32:00;52.77;;;31.67;;
15287;SDS011;7745;48.708;9.026;2022-12-10T07:34:37;48.93;;;31.90;;
15287;SDS011;7745;48.708;9.026;2022-12-10T07:37:09;47.80;;;30.37;;
15287;SDS011;7745;48.708;9.026;2022-12-10T07:39:42;47.47;;;29.93;;
15287;SDS011;7745;48.708;9.026;2022-12-10T07:42:17;45.37;;;29.47;;
15287;SDS011;7745;48.708;9.026;2022-12-10T07:45:09;43.73;;;27.40;;
15287;SDS011;7745;48.708;9.026;2022-12-10T07:48:45;46.57;;;28.10;;
15287;SDS011;7745;48.708;9.026;2022-12-10T07:51:25;45.57;;;28.43;;
15287;SDS011;7745;48.708;9.026;2022-12-10T08:20:54;41.67;;;27.77;;
15287;SDS011;7745;48.708;9.026;2022-12-10T08:23:48;41.47;;;27.50;;
15287;SDS011;7745;48.708;9.026;2022-12-10T08:26:38;44.57;;;27.70;;
15287;SDS011;7745;48.708;9.026;2022-12-10T08:29:17;42.93;;;27.47;;
15287;SDS011;7745;48.708;9.026;2022-12-10T08:31:47;42.73;;;28.13;;
15287;SDS011;7745;48.708;9.026;2022-12-10T08:34:38;43.80;;;26.03;;
15287;SDS011;7745;48.708;9.026;2022-12-10T08:37:24;44.20;;;27.47;;
15287;SDS011;7745;48.708;9.026;2022-12-10T08:40:05;41.60;;;27.73;;
15287;SDS011;7745;48.708;9.026;2022-12-10T08:46:14;42.67;;;27.50;;
15287;SDS011;7745;48.708;9.026;2022-12-10T08:51:49;39.93;;;27.10;;
15287;SDS011;7745;48.708;9.026;2022-12-10T08:58:34;40.20;;;27.07;;
15287;SDS011;7745;48.708;9.026;2022-12-10T09:01:28;42.23;;;27.90;;
15287;SDS011;7745;48.708;9.026;2022-12-10T09:22:02;49.53;;;28.37;;
15287;SDS011;7745;48.708;9.026;2022-12-10T09:24:34;42.60;;;28.30;;
15287;SDS011;7745;48.708;9.026;2022-12-10T09:27:34;42.17;;;27.40;;
15287;SDS011;7745;48.708;9.026;2022-12-10T09:30:21;41.40;;;28.50;;
15287;SDS011;7745;48.708;9.026;2022-12-10T09:36:25;37.73;;;26.03;;
15287;SDS011;7745;48.708;9.026;2022-12-10T10:06:58;39.87;;;27.17;;
15287;SDS011;7745;48.708;9.026;2022-12-10T11:10:51;34.67;;;24.40;;
15287;SDS011;7745;48.708;9.026;2022-12-10T11:14:19;36.00;;;23.43;;
15287;SDS011;7745;48.708;9.026;2022-12-10T11:17:39;34.93;;;23.97;;
15287;SDS011;7745;48.708;9.026;2022-12-10T11:20:47;34.40;;;23.97;;
15287;SDS011;7745;48.708;9.026;2022-12-10T11:29:29;35.73;;;24.07;;
15287;SDS011;7745;48.708;9.026;2022-12-10T11:30:39;33.50;;;22.67;;
15287;SDS011;7745;48.708;9.026;2022-12-10T11:33:57;34.20;;;22.60;;
15287;SDS011;7745;48.708;9.026;2022-12-10T11:43:12;30.77;;;21.93;;
15287;SDS011;7745;48.708;9.026;2022-12-10T11:46:13;32.73;;;22.97;;
15287;SDS011;7745;48.708;9.026;2022-12-10T11:49:26;31.93;;;21.37;;
15287;SDS011;7745;48.708;9.026;2022-12-10T11:52:34;29.77;;;21.37;;
15287;SDS011;7745;48.708;9.026;2022-12-10T11:55:43;30.17;;;22.20;;
15287;SDS011;7745;48.708;9.026;2022-12-10T11:58:48;29.53;;;21.07;;
15287;SDS011;7745;48.708;9.026;2022-12-10T12:01:36;27.20;;;20.57;;
15287;SDS011;7745;48.708;9.026;2022-12-10T12:04:41;29.43;;;20.17;;
15287;SDS011;7745;48.708;9.026;2022-12-10T12:10:51;28.77;;;21.27;;
15287;SDS011;7745;48.708;9.026;2022-12-10T12:14:07;30.43;;;20.63;;
15287;SDS011;7745;48.708;9.026;2022-12-10T12:16:47;31.07;;;22.83;;
15287;SDS011;7745;48.708;9.026;2022-12-10T12:23:17;31.37;;;21.97;;
15287;SDS011;7745;48.708;9.026;2022-12-10T12:25:40;28.13;;;20.10;;
15287;SDS011;7745;48.708;9.026;2022-12-10T12:34:30;29.83;;;20.87;;
15287;SDS011;7745;48.708;9.026;2022-12-10T12:37:06;31.70;;;20.93;;
15287;SDS011;7745;48.708;9.026;2022-12-10T12:39:36;28.43;;;20.67;;
15287;SDS011;7745;48.708;9.026;2022-12-10T12:42:14;29.07;;;21.63;;
15287;SDS011;7745;48.708;9.026;2022-12-10T12:44:51;32.90;;;23.53;;
15287;SDS011;7745;48.708;9.026;2022-12-10T12:47:29;32.23;;;22.00;;
15287;SDS011;7745;48.708;9.026;2022-12-10T12:50:11;29.90;;;22.67;;
15287;SDS011;7745;48.708;9.026;2022-12-10T12:52:53;25.83;;;19.07;;
15287;SDS011;7745;48.708;9.026;2022-12-10T12:55:24;26.63;;;19.43;;
15287;SDS011;7745;48.708;9.026;2022-12-10T12:58:02;27.77;;;19.37;;
15287;SDS011;7745;48.708;9.026;2022-12-10T13:00:43;27.57;;;19.60;;
15287;SDS011;7745;48.708;9.026;2022-12-10T13:03:19;27.40;;;20.03;;
15287;SDS011;7745;48.708;9.026;2022-12-10T13:06:23;24.87;;;17.60;;
15287;SDS011;7745;48.708;9.026;2022-12-10T13:09:01;24.83;;;18.80;;
15287;SDS011;7745;48.708;9.026;2022-12-10T13:12:17;25.40;;;17.80;;
15287;SDS011;7745;48.708;9.026;2022-12-10T13:15:03;24.53;;;16.90;;
15287;SDS011;7745;48.708;9.026;2022-12-10T13:20:41;26.37;;;17.80;;
15287;SDS011;7745;48.708;9.026;2022-12-10T13:26:33;26.43;;;18.67;;
15287;SDS011;7745;48.708;9.026;2022-12-10T13:29:22;26.33;;;18.93;;
15287;SDS011;7745;48.708;9.026;2022-12-10T13:32:01;28.30;;;18.47;;
15287;SDS011;7745;48.708;9.026;2022-12-10T13:34:30;55.93;;;39.93;;
15287;SDS011;7745;48.708;9.026;2022-12-10T13:37:12;28.70;;;20.27;;
15287;SDS011;7745;48.708;9.026;2022-12-10T13:40:00;26.43;;;19.10;;
15287;SDS011;7745;48.708;9.026;2022-12-10T13:42:44;26.57;;;18.37;;
15287;SDS011;7745;48.708;9.026;2022-12-10T13:45:39;26.60;;;17.63;;
15287;SDS011;7745;48.708;9.026;2022-12-10T13:48:31;27.97;;;19.30;;
15287;SDS011;7745;48.708;9.026;2022-12-10T13:51:09;26.87;;;19.90;;
15287;SDS011;7745;48.708;9.026;2022-12-10T13:53:47;29.53;;;19.53;;
15287;SDS011;7745;48.708;9.026;2022-12-10T13:56:26;28.47;;;20.07;;
15287;SDS011;7745;48.708;9.026;2022-12-10T13:58:58;30.03;;;21.97;;
15287;SDS011;7745;48.708;9.026;2022-12-10T14:01:47;28.10;;;20.00;;
15287;SDS011;7745;48.708;9.026;2022-12-10T14:04:39;26.90;;;19.47;;
15287;SDS011;7745;48.708;9.026;2022-12-10T14:07:21;28.90;;;18.97;;
15287;SDS011;7745;48.708;9.026;2022-12-10T14:09:52;27.20;;;19.13;;
15287;SDS011;7745;48.708;9.026;2022-12-10T14:12:30;27.37;;;19.43;;
15287;SDS011;7745;48.708;9.026;2022-12-10T14:15:03;25.37;;;18.77;;
15287;SDS011;7745;48.708;9.026;2022-12-10T14:17:33;26.97;;;18.27;;
15287;SDS011;7745;48.708;9.026;2022-12-10T14:20:05;26.27;;;18.17;;
15287;SDS011;7745;48.708;9.026;2022-12-10T14:22:35;26.67;;;18.03;;
15287;SDS011;7745;48.708;9.026;2022-12-10T14:25:10;25.83;;;17.10;;
15287;SDS011;7745;48.708;9.026;2022-12-10T14:27:43;27.07;;;18.53;;
15287;SDS011;7745;48.708;9.026;2022-12-10T14:30:16;24.77;;;17.70;;
15287;SDS011;7745;48.708;9.026;2022-12-10T14:32:53;23.60;;;16.20;;
15287;SDS011;7745;48.708;9.026;2022-12-10T14:35:27;22.70;;;15.60;;
15287;SDS011;7745;48.708;9.026;2022-12-10T14:37:58;22.07;;;16.63;;
15287;SDS011;7745;48.708;9.026;2022-12-10T14:40:27;23.90;;;15.97;;
15287;SDS011;7745;48.708;9.026;2022-12-10T14:43:08;22.60;;;16.90;;
15287;SDS011;7745;48.708;9.026;2022-12-10T14:45:42;27.50;;;18.30;;
15287;SDS011;7745;48.708;9.026;2022-12-10T14:48:37;28.13;;;18.17;;
15287;SDS011;7745;48.708;9.026;2022-12-10T14:51:46;26.87;;;18.27;;
15287;SDS011;7745;48.708;9.026;2022-12-10T14:54:32;27.60;;;18.37;;
15287;SDS011;7745;48.708;9.026;2022-12-10T15:18:28;31.17;;;19.37;;
15287;SDS011;7745;48.708;9.026;2022-12-10T15:27:14;32.80;;;21.60;;
15287;SDS011;7745;48.708;9.026;2022-12-10T15:29:48;33.23;;;22.03;;
15287;SDS011;7745;48.708;9.026;2022-12-10T15:39:44;32.30;;;20.90;;
15287;SDS011;7745;48.708;9.026;2022-12-10T15:43:12;36.07;;;24.07;;
15287;SDS011;7745;48.708;9.026;2022-12-10T15:49:51;32.50;;;22.13;;
15287;SDS011;7745;48.708;9.026;2022-12-10T15:52:47;34.77;;;22.23;;
15287;SDS011;7745;48.708;9.026;2022-12-10T15:55:28;35.20;;;23.87;;
15287;SDS011;7745;48.708;9.026;2022-12-10T16:04:56;29.40;;;20.37;;
15287;SDS011;7745;48.708;9.026;2022-12-10T16:09:33;31.77;;;22.10;;
15287;SDS011;7745;48.708;9.026;2022-12-10T16:11:55;30.47;;;19.60;;
15287;SDS011;7745;48.708;9.026;2022-12-10T16:18:28;24.80;;;17.50;;
15287;SDS011;7745;48.708;9.026;2022-12-10T16:21:02;28.67;;;19.90;;
15287;SDS011;7745;48.708;9.026;2022-12-10T16:24:24;27.37;;;18.03;;
15287;SDS011;7745;48.708;9.026;2022-12-10T16:27:45;27.30;;;18.40;;
15287;SDS011;7745;48.708;9.026;2022-12-10T16:34:45;26.60;;;18.23;;
15287;SDS011;7745;48.708;9.026;2022-12-10T16:48:08;30.63;;;20.97;;
15287;SDS011;7745;48.708;9.026;2022-12-10T16:50:42;30.20;;;19.63;;
15287;SDS011;7745;48.708;9.026;2022-12-10T16:56:57;27.67;;;19.80;;
15287;SDS011;7745;48.708;9.026;2022-12-10T17:16:03;33.93;;;20.33;;
15287;SDS011;7745;48.708;9.026;2022-12-10T17:16:38;33.23;;;20.77;;
15287;SDS011;7745;48.708;9.026;2022-12-10T17:36:44;30.07;;;20.43;;
15287;SDS011;7745;48.708;9.026;2022-12-10T17:42:54;32.13;;;20.67;;
15287;SDS011;7745;48.708;9.026;2022-12-10T17:45:30;32.77;;;22.07;;
15287;SDS011;7745;48.708;9.026;2022-12-10T17:47:59;35.43;;;22.83;;
15287;SDS011;7745;48.708;9.026;2022-12-10T17:50:49;32.93;;;22.30;;
15287;SDS011;7745;48.708;9.026;2022-12-10T17:53:22;35.00;;;23.23;;
15287;SDS011;7745;48.708;9.026;2022-12-10T17:55:54;36.13;;;23.70;;
15287;SDS011;7745;48.708;9.026;2022-12-10T17:58:37;36.77;;;23.63;;
15287;SDS011;7745;48.708;9.026;2022-12-10T18:01:09;33.03;;;22.40;;
15287;SDS011;7745;48.708;9.026;2022-12-10T18:03:40;35.30;;;23.60;;
15287;SDS011;7745;48.708;9.026;2022-12-10T18:06:10;37.17;;;24.47;;
15287;SDS011;7745;48.708;9.026;2022-12-10T18:08:41;37.73;;;24.80;;
15287;SDS011;7745;48.708;9.026;2022-12-10T18:11:12;34.33;;;22.90;;
15287;SDS011;7745;48.708;9.026;2022-12-10T18:13:41;36.63;;;25.03;;
15287;SDS011;7745;48.708;9.026;2022-12-10T18:16:15;38.37;;;25.53;;
15287;SDS011;7745;48.708;9.026;2022-12-10T18:18:50;38.33;;;27.10;;
15287;SDS011;7745;48.708;9.026;2022-12-10T18:21:19;37.97;;;25.73;;
15287;SDS011;7745;48.708;9.026;2022-12-10T18:24:14;38.57;;;24.50;;
15287;SDS011;7745;48.708;9.026;2022-12-10T18:26:48;37.40;;;24.73;;
15287;SDS011;7745;48.708;9.026;2022-12-10T18:29:26;38.93;;;25.00;;
15287;SDS011;7745;48.708;9.026;2022-12-10T18:31:53;35.83;;;24.50;;
15287;SDS011;7745;48.708;9.026;2022-12-10T18:34:25;35.10;;;25.13;;
15287;SDS011;7745;48.708;9.026;2022-12-10T18:36:55;37.73;;;25.57;;
15287;SDS011;7745;48.708;9.026;2022-12-10T18:39:26;34.53;;;24.83;;
15287;SDS011;7745;48.708;9.026;2022-12-10T18:41:56;39.10;;;24.37;;
15287;SDS011;7745;48.708;9.026;2022-12-10T18:44:50;36.63;;;24.93;;
15287;SDS011;7745;48.708;9.026;2022-12-10T18:47:25;35.17;;;23.90;;
15287;SDS011;7745;48.708;9.026;2022-12-10T18:50:27;37.03;;;24.47;;
15287;SDS011;7745;48.708;9.026;2022-12-10T18:53:00;40.93;;;25.77;;
15287;SDS011;7745;48.708;9.026;2022-12-10T18:55:35;40.53;;;27.33;;
15287;SDS011;7745;48.708;9.026;2022-12-10T18:58:11;39.57;;;26.60;;
15287;SDS011;7745;48.708;9.026;2022-12-10T19:03:58;38.80;;;24.77;;
15287;SDS011;7745;48.708;9.026;2022-12-10T19:06:48;37.93;;;25.67;;
15287;SDS011;7745;48.708;9.026;2022-12-10T19:09:28;41.63;;;26.30;;
15287;SDS011;7745;48.708;9.026;2022-12-10T19:12:14;41.43;;;27.03;;
15287;SDS011;7745;48.708;9.026;2022-12-10T19:15:06;43.23;;;27.30;;
15287;SDS011;7745;48.708;9.026;2022-12-10T19:17:34;39.50;;;26.57;;
15287;SDS011;7745;48.708;9.026;2022-12-10T19:20:09;40.07;;;26.47;;
15287;SDS011;7745;48.708;9.026;2022-12-10T19:22:40;36.23;;;24.73;;
15287;SDS011;7745;48.708;9.026;2022-12-10T19:25:10;38.00;;;25.97;;
15287;SDS011;7745;48.708;9.026;2022-12-10T19:31:13;37.23;;;24.87;;
15287;SDS011;7745;48.708;9.026;2022-12-10T19:33:58;37.77;;;24.37;;
15287;SDS011;7745;48.708;9.026;2022-12-10T19:36:44;36.53;;;23.53;;
15287;SDS011;7745;48.708;9.026;2022-12-10T19:42:17;38.70;;;23.00;;
15287;SDS011;7745;48.708;9.026;2022-12-10T19:44:52;37.73;;;24.80;;
15287;SDS011;7745;48.708;9.026;2022-12-10T19:47:29;37.53;;;23.90;;
15287;SDS011;7745;48.708;9.026;2022-12-10T19:50:04;30.57;;;22.00;;
15287;SDS011;7745;48.708;9.026;2022-12-10T19:52:38;33.67;;;23.10;;
15287;SDS011;7745;48.708;9.026;2022-12-10T19:55:05;34.47;;;23.00;;
15287;SDS011;7745;48.708;9.026;2022-12-10T19:57:33;31.67;;;21.67;;
15287;SDS011;7745;48.708;9.026;2022-12-10T20:00:00;33.47;;;22.07;;
15287;SDS011;7745;48.708;9.026;2022-12-10T20:02:28;33.23;;;22.27;;
15287;SDS011;7745;48.708;9.026;2022-12-10T20:04:59;36.17;;;23.60;;
15287;SDS011;7745;48.708;9.026;2022-12-10T20:07:32;35.30;;;24.00;;
15287;SDS011;7745;48.708;9.026;2022-12-10T20:10:14;39.97;;;25.40;;
15287;SDS011;7745;48.708;9.026;2022-12-10T20:16:28;36.20;;;23.13;;
15287;SDS011;7745;48.708;9.026;2022-12-10T20:19:01;35.10;;;22.13;;
15287;SDS011;7745;48.708;9.026;2022-12-10T20:21:30;36.17;;;24.37;;
15287;SDS011;7745;48.708;9.026;2022-12-10T20:24:13;34.67;;;22.93;;
15287;SDS011;7745;48.708;9.026;2022-12-10T20:26:58;34.97;;;22.63;;
15287;SDS011;7745;48.708;9.026;2022-12-10T20:29:50;33.80;;;22.87;;
15287;SDS011;7745;48.708;9.026;2022-12-10T20:39:27;30.30;;;20.00;;
15287;SDS011;7745;48.708;9.026;2022-12-10T20:45:14;35.27;;;23.20;;
15287;SDS011;7745;48.708;9.026;2022-12-10T20:45:58;33.77;;;22.67;;
15287;SDS011;7745;48.708;9.026;2022-12-10T20:51:10;37.10;;;23.60;;
15287;SDS011;7745;48.708;9.026;2022-12-10T21:00:17;33.03;;;21.17;;
15287;SDS011;7745;48.708;9.026;2022-12-10T21:03:05;34.20;;;21.10;;
15287;SDS011;7745;48.708;9.026;2022-12-10T21:05:36;29.93;;;19.37;;
15287;SDS011;7745;48.708;9.026;2022-12-10T21:08:08;33.70;;;22.10;;
15287;SDS011;7745;48.708;9.026;2022-12-10T21:13:43;34.43;;;21.77;;
15287;SDS011;7745;48.708;9.026;2022-12-10T21:25:54;36.00;;;22.50;;
15287;SDS011;7745;48.708;9.026;2022-12-10T21:28:39;39.63;;;23.53;;
15287;SDS011;7745;48.708;9.026;2022-12-10T21:31:13;35.57;;;22.60;;
15287;SDS011;7745;48.708;9.026;2022-12-10T21:33:50;35.23;;;22.80;;
15287;SDS011;7745;48.708;9.026;2022-12-10T21:36:31;35.43;;;22.67;;
15287;SDS011;7745;48.708;9.026;2022-12-10T21:39:04;38.77;;;23.57;;
15287;SDS011;7745;48.708;9.026;2022-12-10T21:44:46;36.13;;;23.57;;
15287;SDS011;7745;48.708;9.026;2022-12-10T21:47:24;32.87;;;21.70;;
15287;SDS011;7745;48.708;9.026;2022-12-10T21:50:02;37.30;;;23.70;;
15287;SDS011;7745;48.708;9.026;2022-12-10T21:52:32;39.40;;;24.27;;
15287;SDS011;7745;48.708;9.026;2022-12-10T21:58:11;36.70;;;21.83;;
15287;SDS011;7745;48.708;9.026;2022-12-10T22:00:54;36.97;;;22.67;;
15287;SDS011;7745;48.708;9.026;2022-12-10T22:03:31;34.03;;;22.73;;
15287;SDS011;7745;48.708;9.026;2022-12-10T22:06:04;32.33;;;21.47;;
15287;SDS011;7745;48.708;9.026;2022-12-10T22:08:50;34.53;;;21.57;;
15287;SDS011;7745;48.708;9.026;2022-12-10T22:15:54;33.53;;;20.73;;
15287;SDS011;7745;48.708;9.026;2022-12-10T22:18:44;38.00;;;24.23;;
15287;SDS011;7745;48.708;9.026;2022-12-10T22:21:22;37.20;;;24.37;;
15287;SDS011;7745;48.708;9.026;2022-12-10T22:24:01;36.90;;;24.30;;
15287;SDS011;7745;48.708;9.026;2022-12-10T23:08:08;43.50;;;25.87;;
